sensor_id;sensor_type;location;lat;lon;timestamp;P1;durP1;ratioP1;P2;durP2;ratioP2
40489;SDS011;26196;52.302;10.572;2024-01-30T00:02:18;3.80;;;2.90;;
40489;SDS011;26196;52.302;10.572;2024-01-30T00:06:20;4.93;;;3.10;;
40489;SDS011;26196;52.302;10.572;2024-01-30T00:10:22;3.22;;;2.78;;
40489;SDS011;26196;52.302;10.572;2024-01-30T00:14:24;2.88;;;2.45;;
40489;SDS011;26196;52.302;10.572;2024-01-30T00:18:25;4.68;;;2.90;;
40489;SDS011;26196;52.302;10.572;2024-01-30T00:22:27;3.05;;;2.40;;
40489;SDS011;26196;52.302;10.572;2024-01-30T00:26:31;4.13;;;2.88;;
40489;SDS011;26196;52.302;10.572;2024-01-30T00:30:33;4.45;;;2.85;;
40489;SDS011;26196;52.302;10.572;2024-01-30T00:34:34;4.35;;;2.85;;
40489;SDS011;26196;52.302;10.572;2024-01-30T00:38:37;3.75;;;2.78;;
40489;SDS011;26196;52.302;10.572;2024-01-30T00:42:38;3.25;;;2.63;;
40489;SDS011;26196;52.302;10.572;2024-01-30T00:46:40;3.17;;;2.55;;
40489;SDS011;26196;52.302;10.572;2024-01-30T00:50:41;2.80;;;2.42;;
40489;SDS011;26196;52.302;10.572;2024-01-30T00:54:43;2.92;;;2.50;;
40489;SDS011;26196;52.302;10.572;2024-01-30T00:58:45;4.55;;;2.72;;
40489;SDS011;26196;52.302;10.572;2024-01-30T01:02:47;3.08;;;2.15;;
40489;SDS011;26196;52.302;10.572;2024-01-30T01:06:48;3.10;;;2.15;;
40489;SDS011;26196;52.302;10.572;2024-01-30T01:10:50;2.38;;;1.90;;
40489;SDS011;26196;52.302;10.572;2024-01-30T01:14:52;3.22;;;2.35;;
40489;SDS011;26196;52.302;10.572;2024-01-30T01:18:53;4.10;;;2.85;;
40489;SDS011;26196;52.302;10.572;2024-01-30T01:22:55;3.95;;;2.40;;
40489;SDS011;26196;52.302;10.572;2024-01-30T01:26:57;3.42;;;2.28;;
40489;SDS011;26196;52.302;10.572;2024-01-30T01:30:59;3.33;;;2.40;;
40489;SDS011;26196;52.302;10.572;2024-01-30T01:35:06;3.53;;;2.58;;
40489;SDS011;26196;52.302;10.572;2024-01-30T01:39:08;4.18;;;2.65;;
40489;SDS011;26196;52.302;10.572;2024-01-30T01:43:10;2.65;;;2.03;;
40489;SDS011;26196;52.302;10.572;2024-01-30T01:47:11;3.65;;;2.13;;
40489;SDS011;26196;52.302;10.572;2024-01-30T01:51:13;2.78;;;2.15;;
40489;SDS011;26196;52.302;10.572;2024-01-30T01:55:15;4.03;;;2.38;;
40489;SDS011;26196;52.302;10.572;2024-01-30T01:59:18;3.75;;;2.45;;
40489;SDS011;26196;52.302;10.572;2024-01-30T02:03:21;3.55;;;2.50;;
40489;SDS011;26196;52.302;10.572;2024-01-30T02:07:23;4.35;;;2.28;;
40489;SDS011;26196;52.302;10.572;2024-01-30T02:11:25;3.05;;;2.58;;
40489;SDS011;26196;52.302;10.572;2024-01-30T02:15:28;2.92;;;2.40;;
40489;SDS011;26196;52.302;10.572;2024-01-30T02:19:30;2.33;;;2.10;;
40489;SDS011;26196;52.302;10.572;2024-01-30T02:23:31;3.97;;;2.00;;
40489;SDS011;26196;52.302;10.572;2024-01-30T02:27:35;3.28;;;2.20;;
40489;SDS011;26196;52.302;10.572;2024-01-30T02:31:37;3.80;;;2.45;;
40489;SDS011;26196;52.302;10.572;2024-01-30T02:35:38;3.05;;;2.28;;
40489;SDS011;26196;52.302;10.572;2024-01-30T02:39:40;3.28;;;2.60;;
40489;SDS011;26196;52.302;10.572;2024-01-30T02:43:42;4.07;;;2.78;;
40489;SDS011;26196;52.302;10.572;2024-01-30T02:47:43;3.50;;;2.80;;
40489;SDS011;26196;52.302;10.572;2024-01-30T02:51:45;3.45;;;2.70;;
40489;SDS011;26196;52.302;10.572;2024-01-30T02:55:46;3.55;;;2.70;;
40489;SDS011;26196;52.302;10.572;2024-01-30T02:59:48;3.00;;;2.38;;
40489;SDS011;26196;52.302;10.572;2024-01-30T03:03:50;4.07;;;3.67;;
40489;SDS011;26196;52.302;10.572;2024-01-30T03:07:51;4.55;;;2.70;;
40489;SDS011;26196;52.302;10.572;2024-01-30T03:11:53;5.32;;;2.63;;
40489;SDS011;26196;52.302;10.572;2024-01-30T03:15:54;3.45;;;2.47;;
40489;SDS011;26196;52.302;10.572;2024-01-30T03:19:56;3.15;;;2.38;;
40489;SDS011;26196;52.302;10.572;2024-01-30T03:23:58;3.33;;;2.30;;
40489;SDS011;26196;52.302;10.572;2024-01-30T03:27:59;3.75;;;2.50;;
40489;SDS011;26196;52.302;10.572;2024-01-30T03:32:01;3.63;;;2.65;;
40489;SDS011;26196;52.302;10.572;2024-01-30T03:36:03;4.32;;;2.40;;
40489;SDS011;26196;52.302;10.572;2024-01-30T03:40:06;4.60;;;2.80;;
40489;SDS011;26196;52.302;10.572;2024-01-30T03:44:08;3.88;;;2.90;;
40489;SDS011;26196;52.302;10.572;2024-01-30T03:48:09;2.80;;;2.40;;
40489;SDS011;26196;52.302;10.572;2024-01-30T03:52:11;3.88;;;2.67;;
40489;SDS011;26196;52.302;10.572;2024-01-30T03:56:12;5.47;;;2.53;;
40489;SDS011;26196;52.302;10.572;2024-01-30T04:00:15;3.28;;;2.45;;
40489;SDS011;26196;52.302;10.572;2024-01-30T04:04:20;4.20;;;2.38;;
40489;SDS011;26196;52.302;10.572;2024-01-30T04:08:22;3.80;;;2.40;;
40489;SDS011;26196;52.302;10.572;2024-01-30T04:12:23;2.38;;;2.08;;
40489;SDS011;26196;52.302;10.572;2024-01-30T04:16:25;3.15;;;2.25;;
40489;SDS011;26196;52.302;10.572;2024-01-30T04:20:27;4.07;;;2.67;;
40489;SDS011;26196;52.302;10.572;2024-01-30T04:24:28;3.90;;;2.10;;
40489;SDS011;26196;52.302;10.572;2024-01-30T04:28:30;5.28;;;2.78;;
40489;SDS011;26196;52.302;10.572;2024-01-30T04:32:32;4.03;;;2.50;;
40489;SDS011;26196;52.302;10.572;2024-01-30T04:36:33;3.47;;;2.65;;
40489;SDS011;26196;52.302;10.572;2024-01-30T04:40:35;2.83;;;2.08;;
40489;SDS011;26196;52.302;10.572;2024-01-30T04:44:36;6.22;;;3.05;;
40489;SDS011;26196;52.302;10.572;2024-01-30T04:48:38;4.28;;;2.75;;
40489;SDS011;26196;52.302;10.572;2024-01-30T04:52:40;5.25;;;3.03;;
40489;SDS011;26196;52.302;10.572;2024-01-30T04:56:41;5.55;;;2.90;;
40489;SDS011;26196;52.302;10.572;2024-01-30T05:00:43;4.97;;;2.92;;
40489;SDS011;26196;52.302;10.572;2024-01-30T05:04:45;9.10;;;2.80;;
40489;SDS011;26196;52.302;10.572;2024-01-30T05:08:46;4.05;;;2.60;;
40489;SDS011;26196;52.302;10.572;2024-01-30T05:12:48;9.73;;;3.67;;
40489;SDS011;26196;52.302;10.572;2024-01-30T05:16:49;6.22;;;3.40;;
40489;SDS011;26196;52.302;10.572;2024-01-30T05:20:51;7.68;;;3.55;;
40489;SDS011;26196;52.302;10.572;2024-01-30T05:24:52;6.15;;;3.70;;
40489;SDS011;26196;52.302;10.572;2024-01-30T05:28:54;6.97;;;3.55;;
40489;SDS011;26196;52.302;10.572;2024-01-30T05:32:56;8.35;;;4.20;;
40489;SDS011;26196;52.302;10.572;2024-01-30T05:36:57;7.47;;;3.45;;
40489;SDS011;26196;52.302;10.572;2024-01-30T05:40:59;9.18;;;4.35;;
40489;SDS011;26196;52.302;10.572;2024-01-30T05:45:00;5.97;;;3.33;;
40489;SDS011;26196;52.302;10.572;2024-01-30T05:49:02;9.45;;;4.30;;
40489;SDS011;26196;52.302;10.572;2024-01-30T05:53:03;9.55;;;3.45;;
40489;SDS011;26196;52.302;10.572;2024-01-30T05:57:05;8.38;;;3.80;;
40489;SDS011;26196;52.302;10.572;2024-01-30T06:01:07;7.43;;;3.67;;
40489;SDS011;26196;52.302;10.572;2024-01-30T06:05:10;8.52;;;3.65;;
40489;SDS011;26196;52.302;10.572;2024-01-30T06:09:11;6.20;;;3.88;;
40489;SDS011;26196;52.302;10.572;2024-01-30T06:13:14;5.30;;;3.25;;
40489;SDS011;26196;52.302;10.572;2024-01-30T06:17:16;7.57;;;4.32;;
40489;SDS011;26196;52.302;10.572;2024-01-30T06:21:18;5.82;;;3.50;;
40489;SDS011;26196;52.302;10.572;2024-01-30T06:25:19;7.07;;;3.38;;
40489;SDS011;26196;52.302;10.572;2024-01-30T06:29:21;6.80;;;3.58;;
40489;SDS011;26196;52.302;10.572;2024-01-30T06:33:23;6.25;;;3.60;;
40489;SDS011;26196;52.302;10.572;2024-01-30T06:37:24;8.32;;;4.07;;
40489;SDS011;26196;52.302;10.572;2024-01-30T06:41:26;5.75;;;2.90;;
40489;SDS011;26196;52.302;10.572;2024-01-30T06:45:27;5.38;;;3.53;;
40489;SDS011;26196;52.302;10.572;2024-01-30T06:49:29;8.70;;;3.25;;
40489;SDS011;26196;52.302;10.572;2024-01-30T06:53:31;7.63;;;2.92;;
40489;SDS011;26196;52.302;10.572;2024-01-30T06:57:32;5.93;;;3.03;;
40489;SDS011;26196;52.302;10.572;2024-01-30T07:01:34;4.97;;;2.72;;
40489;SDS011;26196;52.302;10.572;2024-01-30T07:05:35;4.63;;;2.60;;
40489;SDS011;26196;52.302;10.572;2024-01-30T07:09:37;7.05;;;2.92;;
40489;SDS011;26196;52.302;10.572;2024-01-30T07:13:38;7.10;;;3.55;;
40489;SDS011;26196;52.302;10.572;2024-01-30T07:17:40;5.10;;;3.50;;
40489;SDS011;26196;52.302;10.572;2024-01-30T07:21:42;3.92;;;3.05;;
40489;SDS011;26196;52.302;10.572;2024-01-30T07:25:44;6.40;;;3.35;;
40489;SDS011;26196;52.302;10.572;2024-01-30T07:29:50;4.03;;;2.45;;
40489;SDS011;26196;52.302;10.572;2024-01-30T07:33:51;4.95;;;2.85;;
40489;SDS011;26196;52.302;10.572;2024-01-30T07:37:53;4.90;;;3.22;;
40489;SDS011;26196;52.302;10.572;2024-01-30T07:41:54;4.75;;;3.00;;
40489;SDS011;26196;52.302;10.572;2024-01-30T07:45:55;6.22;;;2.80;;
40489;SDS011;26196;52.302;10.572;2024-01-30T07:49:57;6.43;;;3.17;;
40489;SDS011;26196;52.302;10.572;2024-01-30T07:53:59;3.85;;;2.72;;
40489;SDS011;26196;52.302;10.572;2024-01-30T07:58:01;5.05;;;2.75;;
40489;SDS011;26196;52.302;10.572;2024-01-30T08:02:03;4.93;;;3.60;;
40489;SDS011;26196;52.302;10.572;2024-01-30T08:06:05;7.28;;;3.38;;
40489;SDS011;26196;52.302;10.572;2024-01-30T08:10:08;7.38;;;3.78;;
40489;SDS011;26196;52.302;10.572;2024-01-30T08:14:10;5.10;;;2.88;;
40489;SDS011;26196;52.302;10.572;2024-01-30T08:18:11;3.50;;;2.33;;
40489;SDS011;26196;52.302;10.572;2024-01-30T08:22:13;4.63;;;2.33;;
40489;SDS011;26196;52.302;10.572;2024-01-30T08:26:15;3.88;;;2.17;;
40489;SDS011;26196;52.302;10.572;2024-01-30T08:30:16;3.90;;;2.63;;
40489;SDS011;26196;52.302;10.572;2024-01-30T08:34:18;3.08;;;2.17;;
40489;SDS011;26196;52.302;10.572;2024-01-30T08:38:20;6.68;;;2.85;;
40489;SDS011;26196;52.302;10.572;2024-01-30T08:42:22;4.70;;;2.22;;
40489;SDS011;26196;52.302;10.572;2024-01-30T08:46:24;3.17;;;2.17;;
40489;SDS011;26196;52.302;10.572;2024-01-30T08:50:26;4.03;;;2.30;;
40489;SDS011;26196;52.302;10.572;2024-01-30T08:54:28;3.00;;;2.40;;
40489;SDS011;26196;52.302;10.572;2024-01-30T08:58:29;5.15;;;2.33;;
40489;SDS011;26196;52.302;10.572;2024-01-30T09:02:32;3.70;;;2.47;;
40489;SDS011;26196;52.302;10.572;2024-01-30T09:06:34;3.40;;;2.40;;
40489;SDS011;26196;52.302;10.572;2024-01-30T09:10:36;4.28;;;3.13;;
40489;SDS011;26196;52.302;10.572;2024-01-30T09:14:39;4.38;;;3.00;;
40489;SDS011;26196;52.302;10.572;2024-01-30T09:18:41;4.25;;;2.55;;
40489;SDS011;26196;52.302;10.572;2024-01-30T09:22:43;4.70;;;3.00;;
40489;SDS011;26196;52.302;10.572;2024-01-30T09:26:45;7.65;;;3.88;;
40489;SDS011;26196;52.302;10.572;2024-01-30T09:30:46;7.95;;;3.40;;
40489;SDS011;26196;52.302;10.572;2024-01-30T09:34:48;5.00;;;2.83;;
40489;SDS011;26196;52.302;10.572;2024-01-30T09:38:49;7.38;;;3.63;;
40489;SDS011;26196;52.302;10.572;2024-01-30T09:42:51;6.80;;;4.43;;
40489;SDS011;26196;52.302;10.572;2024-01-30T09:46:53;5.78;;;3.47;;
40489;SDS011;26196;52.302;10.572;2024-01-30T09:50:55;7.43;;;3.30;;
40489;SDS011;26196;52.302;10.572;2024-01-30T09:54:59;7.47;;;4.13;;
40489;SDS011;26196;52.302;10.572;2024-01-30T09:59:02;8.70;;;4.78;;
40489;SDS011;26196;52.302;10.572;2024-01-30T10:03:04;4.85;;;3.60;;
40489;SDS011;26196;52.302;10.572;2024-01-30T10:07:07;6.40;;;3.35;;
40489;SDS011;26196;52.302;10.572;2024-01-30T10:11:10;8.88;;;3.60;;
40489;SDS011;26196;52.302;10.572;2024-01-30T10:15:12;7.60;;;3.65;;
40489;SDS011;26196;52.302;10.572;2024-01-30T10:19:15;6.78;;;3.13;;
40489;SDS011;26196;52.302;10.572;2024-01-30T10:23:17;5.43;;;3.45;;
40489;SDS011;26196;52.302;10.572;2024-01-30T10:27:25;8.65;;;3.72;;
40489;SDS011;26196;52.302;10.572;2024-01-30T10:31:28;6.20;;;3.38;;
40489;SDS011;26196;52.302;10.572;2024-01-30T10:35:29;7.68;;;4.35;;
40489;SDS011;26196;52.302;10.572;2024-01-30T10:39:31;7.70;;;3.50;;
40489;SDS011;26196;52.302;10.572;2024-01-30T10:43:35;6.75;;;4.65;;
40489;SDS011;26196;52.302;10.572;2024-01-30T10:47:40;5.65;;;3.10;;
40489;SDS011;26196;52.302;10.572;2024-01-30T10:51:49;6.68;;;4.18;;
40489;SDS011;26196;52.302;10.572;2024-01-30T10:55:53;7.82;;;3.72;;
40489;SDS011;26196;52.302;10.572;2024-01-30T10:59:56;11.95;;;5.35;;
40489;SDS011;26196;52.302;10.572;2024-01-30T11:03:59;8.80;;;3.90;;
40489;SDS011;26196;52.302;10.572;2024-01-30T11:08:13;7.93;;;4.50;;
40489;SDS011;26196;52.302;10.572;2024-01-30T11:12:15;5.90;;;3.65;;
40489;SDS011;26196;52.302;10.572;2024-01-30T11:16:16;7.45;;;3.65;;
40489;SDS011;26196;52.302;10.572;2024-01-30T11:20:22;7.68;;;3.83;;
40489;SDS011;26196;52.302;10.572;2024-01-30T11:24:27;6.47;;;3.65;;
40489;SDS011;26196;52.302;10.572;2024-01-30T11:28:32;7.78;;;3.70;;
40489;SDS011;26196;52.302;10.572;2024-01-30T11:32:36;7.70;;;4.20;;
40489;SDS011;26196;52.302;10.572;2024-01-30T11:36:38;5.05;;;3.58;;
40489;SDS011;26196;52.302;10.572;2024-01-30T11:40:44;7.53;;;4.00;;
40489;SDS011;26196;52.302;10.572;2024-01-30T11:44:47;6.45;;;3.67;;
40489;SDS011;26196;52.302;10.572;2024-01-30T11:48:50;7.60;;;4.13;;
40489;SDS011;26196;52.302;10.572;2024-01-30T11:52:54;8.48;;;2.97;;
40489;SDS011;26196;52.302;10.572;2024-01-30T11:56:55;5.20;;;3.15;;
40489;SDS011;26196;52.302;10.572;2024-01-30T12:00:57;7.03;;;3.10;;
40489;SDS011;26196;52.302;10.572;2024-01-30T12:05:02;5.55;;;3.10;;
40489;SDS011;26196;52.302;10.572;2024-01-30T12:09:06;7.45;;;3.53;;
40489;SDS011;26196;52.302;10.572;2024-01-30T12:13:11;6.35;;;2.92;;
40489;SDS011;26196;52.302;10.572;2024-01-30T12:17:23;4.05;;;2.97;;
40489;SDS011;26196;52.302;10.572;2024-01-30T12:21:26;3.97;;;2.60;;
40489;SDS011;26196;52.302;10.572;2024-01-30T12:25:27;4.97;;;3.10;;
40489;SDS011;26196;52.302;10.572;2024-01-30T12:29:31;5.07;;;2.90;;
40489;SDS011;26196;52.302;10.572;2024-01-30T12:33:38;4.97;;;2.85;;
40489;SDS011;26196;52.302;10.572;2024-01-30T12:37:40;4.65;;;2.58;;
40489;SDS011;26196;52.302;10.572;2024-01-30T12:41:43;4.28;;;2.90;;
40489;SDS011;26196;52.302;10.572;2024-01-30T12:45:46;4.43;;;2.90;;
40489;SDS011;26196;52.302;10.572;2024-01-30T12:49:48;6.88;;;3.38;;
40489;SDS011;26196;52.302;10.572;2024-01-30T12:53:50;8.75;;;3.70;;
40489;SDS011;26196;52.302;10.572;2024-01-30T12:57:51;4.75;;;2.88;;
40489;SDS011;26196;52.302;10.572;2024-01-30T13:01:53;5.93;;;3.25;;
40489;SDS011;26196;52.302;10.572;2024-01-30T13:05:55;5.32;;;3.30;;
40489;SDS011;26196;52.302;10.572;2024-01-30T13:09:56;4.88;;;3.10;;
40489;SDS011;26196;52.302;10.572;2024-01-30T13:14:04;5.10;;;3.25;;
40489;SDS011;26196;52.302;10.572;2024-01-30T13:18:05;5.20;;;3.03;;
40489;SDS011;26196;52.302;10.572;2024-01-30T13:22:07;3.50;;;2.88;;
40489;SDS011;26196;52.302;10.572;2024-01-30T13:26:09;5.85;;;3.13;;
40489;SDS011;26196;52.302;10.572;2024-01-30T13:30:10;5.70;;;2.67;;
40489;SDS011;26196;52.302;10.572;2024-01-30T13:34:12;6.57;;;3.28;;
40489;SDS011;26196;52.302;10.572;2024-01-30T13:38:15;5.13;;;2.83;;
40489;SDS011;26196;52.302;10.572;2024-01-30T13:42:17;4.80;;;2.65;;
40489;SDS011;26196;52.302;10.572;2024-01-30T13:46:18;3.95;;;2.50;;
40489;SDS011;26196;52.302;10.572;2024-01-30T13:50:20;3.88;;;2.58;;
40489;SDS011;26196;52.302;10.572;2024-01-30T13:54:21;3.90;;;2.40;;
40489;SDS011;26196;52.302;10.572;2024-01-30T13:58:23;4.75;;;3.05;;
40489;SDS011;26196;52.302;10.572;2024-01-30T14:02:25;3.92;;;2.17;;
40489;SDS011;26196;52.302;10.572;2024-01-30T14:06:27;3.28;;;2.10;;
40489;SDS011;26196;52.302;10.572;2024-01-30T14:10:29;3.67;;;2.67;;
40489;SDS011;26196;52.302;10.572;2024-01-30T14:14:30;4.93;;;3.08;;
40489;SDS011;26196;52.302;10.572;2024-01-30T14:18:32;7.95;;;3.10;;
40489;SDS011;26196;52.302;10.572;2024-01-30T14:22:33;11.10;;;4.05;;
40489;SDS011;26196;52.302;10.572;2024-01-30T14:26:35;7.18;;;3.40;;
40489;SDS011;26196;52.302;10.572;2024-01-30T14:30:38;9.55;;;4.93;;
40489;SDS011;26196;52.302;10.572;2024-01-30T14:34:39;10.88;;;4.15;;
40489;SDS011;26196;52.302;10.572;2024-01-30T14:38:41;7.90;;;4.05;;
40489;SDS011;26196;52.302;10.572;2024-01-30T14:42:44;6.47;;;3.50;;
40489;SDS011;26196;52.302;10.572;2024-01-30T14:46:45;6.55;;;3.72;;
40489;SDS011;26196;52.302;10.572;2024-01-30T14:50:47;8.43;;;4.07;;
40489;SDS011;26196;52.302;10.572;2024-01-30T14:54:49;8.30;;;3.38;;
40489;SDS011;26196;52.302;10.572;2024-01-30T14:58:50;8.32;;;3.28;;
40489;SDS011;26196;52.302;10.572;2024-01-30T15:02:53;10.35;;;4.22;;
40489;SDS011;26196;52.302;10.572;2024-01-30T15:06:55;9.07;;;3.40;;
40489;SDS011;26196;52.302;10.572;2024-01-30T15:10:58;5.70;;;3.28;;
40489;SDS011;26196;52.302;10.572;2024-01-30T15:15:00;7.88;;;3.53;;
40489;SDS011;26196;52.302;10.572;2024-01-30T15:19:02;6.22;;;3.45;;
40489;SDS011;26196;52.302;10.572;2024-01-30T15:23:06;5.53;;;3.20;;
40489;SDS011;26196;52.302;10.572;2024-01-30T15:27:08;5.25;;;2.95;;
40489;SDS011;26196;52.302;10.572;2024-01-30T15:31:09;7.50;;;3.17;;
40489;SDS011;26196;52.302;10.572;2024-01-30T15:35:11;5.55;;;3.00;;
40489;SDS011;26196;52.302;10.572;2024-01-30T15:39:12;6.03;;;3.38;;
40489;SDS011;26196;52.302;10.572;2024-01-30T15:43:16;6.40;;;4.03;;
40489;SDS011;26196;52.302;10.572;2024-01-30T15:47:18;6.20;;;3.20;;
40489;SDS011;26196;52.302;10.572;2024-01-30T15:51:19;6.68;;;3.58;;
40489;SDS011;26196;52.302;10.572;2024-01-30T15:55:21;5.10;;;3.00;;
40489;SDS011;26196;52.302;10.572;2024-01-30T15:59:22;7.60;;;3.65;;
40489;SDS011;26196;52.302;10.572;2024-01-30T16:03:24;5.85;;;3.60;;
40489;SDS011;26196;52.302;10.572;2024-01-30T16:07:29;4.40;;;3.00;;
40489;SDS011;26196;52.302;10.572;2024-01-30T16:11:32;6.50;;;3.25;;
40489;SDS011;26196;52.302;10.572;2024-01-30T16:15:34;5.05;;;2.90;;
40489;SDS011;26196;52.302;10.572;2024-01-30T16:19:35;5.25;;;3.35;;
40489;SDS011;26196;52.302;10.572;2024-01-30T16:23:37;6.60;;;3.33;;
40489;SDS011;26196;52.302;10.572;2024-01-30T16:27:39;4.70;;;2.90;;
40489;SDS011;26196;52.302;10.572;2024-01-30T16:31:41;7.20;;;3.67;;
40489;SDS011;26196;52.302;10.572;2024-01-30T16:35:42;7.40;;;3.45;;
40489;SDS011;26196;52.302;10.572;2024-01-30T16:39:48;5.47;;;2.60;;
40489;SDS011;26196;52.302;10.572;2024-01-30T16:43:49;4.55;;;2.85;;
40489;SDS011;26196;52.302;10.572;2024-01-30T16:47:51;5.10;;;3.00;;
40489;SDS011;26196;52.302;10.572;2024-01-30T16:51:52;3.45;;;2.92;;
40489;SDS011;26196;52.302;10.572;2024-01-30T16:55:54;6.65;;;3.40;;
40489;SDS011;26196;52.302;10.572;2024-01-30T16:59:55;5.55;;;3.78;;
40489;SDS011;26196;52.302;10.572;2024-01-30T17:03:57;6.95;;;4.35;;
40489;SDS011;26196;52.302;10.572;2024-01-30T17:07:59;8.88;;;4.68;;
40489;SDS011;26196;52.302;10.572;2024-01-30T17:12:01;7.07;;;4.20;;
40489;SDS011;26196;52.302;10.572;2024-01-30T17:16:04;6.07;;;4.22;;
40489;SDS011;26196;52.302;10.572;2024-01-30T17:20:06;6.22;;;4.07;;
40489;SDS011;26196;52.302;10.572;2024-01-30T17:24:09;7.95;;;4.47;;
40489;SDS011;26196;52.302;10.572;2024-01-30T17:28:12;5.93;;;4.05;;
40489;SDS011;26196;52.302;10.572;2024-01-30T17:32:14;6.07;;;4.38;;
40489;SDS011;26196;52.302;10.572;2024-01-30T17:36:16;5.88;;;3.75;;
40489;SDS011;26196;52.302;10.572;2024-01-30T17:40:17;5.40;;;3.70;;
40489;SDS011;26196;52.302;10.572;2024-01-30T17:44:20;3.13;;;2.60;;
40489;SDS011;26196;52.302;10.572;2024-01-30T17:48:22;5.28;;;3.40;;
40489;SDS011;26196;52.302;10.572;2024-01-30T17:52:23;6.25;;;3.67;;
40489;SDS011;26196;52.302;10.572;2024-01-30T17:56:25;7.65;;;3.20;;
40489;SDS011;26196;52.302;10.572;2024-01-30T18:00:27;7.50;;;3.22;;
40489;SDS011;26196;52.302;10.572;2024-01-30T18:04:29;5.88;;;3.60;;
40489;SDS011;26196;52.302;10.572;2024-01-30T18:08:33;5.47;;;3.03;;
40489;SDS011;26196;52.302;10.572;2024-01-30T18:12:35;5.28;;;3.03;;
40489;SDS011;26196;52.302;10.572;2024-01-30T18:16:37;5.63;;;3.42;;
40489;SDS011;26196;52.302;10.572;2024-01-30T18:20:39;6.22;;;3.38;;
40489;SDS011;26196;52.302;10.572;2024-01-30T18:24:41;4.88;;;3.10;;
40489;SDS011;26196;52.302;10.572;2024-01-30T18:28:43;4.78;;;3.17;;
40489;SDS011;26196;52.302;10.572;2024-01-30T18:32:45;5.65;;;3.63;;
40489;SDS011;26196;52.302;10.572;2024-01-30T18:36:47;6.10;;;3.35;;
40489;SDS011;26196;52.302;10.572;2024-01-30T18:40:49;6.32;;;3.50;;
40489;SDS011;26196;52.302;10.572;2024-01-30T18:44:50;7.25;;;3.65;;
40489;SDS011;26196;52.302;10.572;2024-01-30T18:48:52;4.90;;;2.92;;
40489;SDS011;26196;52.302;10.572;2024-01-30T18:52:53;6.45;;;3.72;;
40489;SDS011;26196;52.302;10.572;2024-01-30T18:56:55;8.18;;;4.15;;
40489;SDS011;26196;52.302;10.572;2024-01-30T19:00:56;4.68;;;3.08;;
40489;SDS011;26196;52.302;10.572;2024-01-30T19:04:58;5.45;;;3.17;;
40489;SDS011;26196;52.302;10.572;2024-01-30T19:09:01;4.63;;;3.10;;
40489;SDS011;26196;52.302;10.572;2024-01-30T19:13:03;4.18;;;3.17;;
40489;SDS011;26196;52.302;10.572;2024-01-30T19:17:06;5.18;;;3.10;;
40489;SDS011;26196;52.302;10.572;2024-01-30T19:21:08;5.05;;;3.15;;
40489;SDS011;26196;52.302;10.572;2024-01-30T19:25:09;5.63;;;3.17;;
40489;SDS011;26196;52.302;10.572;2024-01-30T19:29:11;3.60;;;3.00;;
40489;SDS011;26196;52.302;10.572;2024-01-30T19:33:12;5.43;;;3.33;;
40489;SDS011;26196;52.302;10.572;2024-01-30T19:37:14;3.10;;;2.55;;
40489;SDS011;26196;52.302;10.572;2024-01-30T19:41:16;5.22;;;2.90;;
40489;SDS011;26196;52.302;10.572;2024-01-30T19:45:17;4.82;;;3.85;;
40489;SDS011;26196;52.302;10.572;2024-01-30T19:49:19;6.00;;;3.67;;
40489;SDS011;26196;52.302;10.572;2024-01-30T19:53:21;4.65;;;3.30;;
40489;SDS011;26196;52.302;10.572;2024-01-30T19:57:24;6.60;;;3.65;;
40489;SDS011;26196;52.302;10.572;2024-01-30T20:01:25;5.65;;;3.92;;
40489;SDS011;26196;52.302;10.572;2024-01-30T20:05:27;8.00;;;3.70;;
40489;SDS011;26196;52.302;10.572;2024-01-30T20:09:29;7.35;;;3.58;;
40489;SDS011;26196;52.302;10.572;2024-01-30T20:13:30;5.70;;;4.30;;
40489;SDS011;26196;52.302;10.572;2024-01-30T20:17:33;6.43;;;4.00;;
40489;SDS011;26196;52.302;10.572;2024-01-30T20:21:35;4.50;;;3.20;;
40489;SDS011;26196;52.302;10.572;2024-01-30T20:25:37;5.03;;;3.75;;
40489;SDS011;26196;52.302;10.572;2024-01-30T20:29:38;6.43;;;4.03;;
40489;SDS011;26196;52.302;10.572;2024-01-30T20:33:40;5.47;;;3.50;;
40489;SDS011;26196;52.302;10.572;2024-01-30T20:37:42;6.90;;;4.18;;
40489;SDS011;26196;52.302;10.572;2024-01-30T20:41:43;6.07;;;4.07;;
40489;SDS011;26196;52.302;10.572;2024-01-30T20:45:46;6.38;;;3.65;;
40489;SDS011;26196;52.302;10.572;2024-01-30T20:49:47;4.57;;;3.15;;
40489;SDS011;26196;52.302;10.572;2024-01-30T20:53:49;7.45;;;3.40;;
40489;SDS011;26196;52.302;10.572;2024-01-30T20:57:50;5.57;;;3.20;;
40489;SDS011;26196;52.302;10.572;2024-01-30T21:01:52;5.90;;;2.78;;
40489;SDS011;26196;52.302;10.572;2024-01-30T21:05:54;3.72;;;2.15;;
40489;SDS011;26196;52.302;10.572;2024-01-30T21:09:56;3.72;;;2.20;;
40489;SDS011;26196;52.302;10.572;2024-01-30T21:13:58;3.28;;;1.88;;
40489;SDS011;26196;52.302;10.572;2024-01-30T21:18:00;1.95;;;1.58;;
40489;SDS011;26196;52.302;10.572;2024-01-30T21:22:01;2.95;;;1.63;;
40489;SDS011;26196;52.302;10.572;2024-01-30T21:26:03;3.45;;;2.00;;
40489;SDS011;26196;52.302;10.572;2024-01-30T21:30:05;4.60;;;1.70;;
40489;SDS011;26196;52.302;10.572;2024-01-30T21:34:07;2.47;;;1.60;;
40489;SDS011;26196;52.302;10.572;2024-01-30T21:38:09;3.60;;;1.40;;
40489;SDS011;26196;52.302;10.572;2024-01-30T21:42:10;3.78;;;2.53;;
40489;SDS011;26196;52.302;10.572;2024-01-30T21:46:22;2.78;;;1.60;;
40489;SDS011;26196;52.302;10.572;2024-01-30T21:50:24;2.22;;;1.25;;
40489;SDS011;26196;52.302;10.572;2024-01-30T21:54:25;2.58;;;1.38;;
40489;SDS011;26196;52.302;10.572;2024-01-30T21:58:27;2.60;;;1.55;;
40489;SDS011;26196;52.302;10.572;2024-01-30T22:02:28;3.33;;;1.35;;
40489;SDS011;26196;52.302;10.572;2024-01-30T22:06:30;3.03;;;1.50;;
40489;SDS011;26196;52.302;10.572;2024-01-30T22:10:31;2.83;;;1.20;;
40489;SDS011;26196;52.302;10.572;2024-01-30T22:14:33;3.63;;;1.55;;
40489;SDS011;26196;52.302;10.572;2024-01-30T22:18:36;4.45;;;1.52;;
40489;SDS011;26196;52.302;10.572;2024-01-30T22:22:38;1.90;;;1.35;;
40489;SDS011;26196;52.302;10.572;2024-01-30T22:26:40;1.95;;;1.27;;
40489;SDS011;26196;52.302;10.572;2024-01-30T22:30:42;2.10;;;1.42;;
40489;SDS011;26196;52.302;10.572;2024-01-30T22:34:44;4.22;;;1.27;;
40489;SDS011;26196;52.302;10.572;2024-01-30T22:38:46;1.67;;;1.25;;
40489;SDS011;26196;52.302;10.572;2024-01-30T22:42:47;3.05;;;1.42;;
40489;SDS011;26196;52.302;10.572;2024-01-30T22:46:49;3.38;;;1.20;;
40489;SDS011;26196;52.302;10.572;2024-01-30T22:50:50;2.97;;;1.75;;
40489;SDS011;26196;52.302;10.572;2024-01-30T22:54:52;3.10;;;1.60;;
40489;SDS011;26196;52.302;10.572;2024-01-30T22:58:53;2.85;;;1.90;;
40489;SDS011;26196;52.302;10.572;2024-01-30T23:02:55;2.85;;;1.50;;
40489;SDS011;26196;52.302;10.572;2024-01-30T23:06:57;2.67;;;1.77;;
40489;SDS011;26196;52.302;10.572;2024-01-30T23:10:59;1.75;;;1.30;;
40489;SDS011;26196;52.302;10.572;2024-01-30T23:15:01;2.00;;;1.40;;
40489;SDS011;26196;52.302;10.572;2024-01-30T23:19:04;3.30;;;1.15;;
40489;SDS011;26196;52.302;10.572;2024-01-30T23:23:06;2.38;;;1.80;;
40489;SDS011;26196;52.302;10.572;2024-01-30T23:27:09;2.28;;;1.67;;
40489;SDS011;26196;52.302;10.572;2024-01-30T23:31:10;3.25;;;1.92;;
40489;SDS011;26196;52.302;10.572;2024-01-30T23:35:12;2.38;;;1.67;;
40489;SDS011;26196;52.302;10.572;2024-01-30T23:39:14;1.73;;;1.25;;
40489;SDS011;26196;52.302;10.572;2024-01-30T23:43:15;2.38;;;1.30;;
40489;SDS011;26196;52.302;10.572;2024-01-30T23:47:17;2.17;;;1.50;;
40489;SDS011;26196;52.302;10.572;2024-01-30T23:51:18;1.75;;;1.23;;
40489;SDS011;26196;52.302;10.572;2024-01-30T23:55:20;1.73;;;1.08;;